EST,Max TemperatureF,Mean TemperatureF,Min TemperatureF,Max Dew PointF,MeanDew PointF,Min DewpointF,Max Humidity, Mean Humidity, Min Humidity, Max Sea Level PressureIn, Mean Sea Level PressureIn, Min Sea Level PressureIn, Max VisibilityMiles, Mean VisibilityMiles, Min VisibilityMiles, Max Wind SpeedMPH, Mean Wind SpeedMPH, Max Gust SpeedMPH,PrecipitationIn, CloudCover, Events, WindDirDegrees
2014-1-1,15,6,-3,5,-3,-16,76,64,51,30.51,30.36,30.16,10,10,10,17,7,23,0.00,6,,5
2014-1-2,-3,-7,-11,-13,-16,-18,79,69,58,30.49,30.29,30.08,10,3,1,16,11,20,0.13,8,Snow,349
2014-1-3,-3,-9,-15,-15,-16,-20,79,65,50,30.45,30.21,30.04,10,6,2,18,10,25,0.02,5,Snow,10
2014-1-4,22,4,-15,5,-5,-21,79,61,43,30.45,30.26,30.12,10,10,10,30,15,40,0.00,5,,180
2014-1-5,34,28,22,31,17,6,89,65,41,30.25,30.07,29.73,10,10,5,23,10,30,0.08,7,Rain,181
2014-1-6,51,36,20,47,32,4,93,70,47,29.69,29.40,29.21,10,7,1,22,12,33,0.55,7,Rain,231
2014-1-7,20,13,6,2,-6,-11,60,47,34,30.09,29.84,29.56,10,10,10,28,17,37,T,5,,240
2014-1-8,17,12,7,3,0,-4,63,56,49,30.41,30.32,30.13,10,10,10,20,12,26,0.00,6,,182
2014-1-9,24,18,11,8,6,4,76,60,44,30.62,30.54,30.40,10,10,10,16,7,20,0.00,4,,216
2014-1-10,35,25,14,27,18,7,88,72,55,30.50,30.36,30.17,10,8,1,20,10,26,0.01,7,Snow,188
2014-1-11,52,43,34,50,41,28,100,85,70,30.14,29.52,29.12,10,6,0,22,10,30,1.01,8,Fog-Rain,183
2014-1-12,47,42,37,34,28,24,67,61,54,29.95,29.62,29.25,10,10,10,22,11,33,T,8,Rain,265
2014-1-13,49,40,31,32,26,23,69,57,45,30.00,29.87,29.73,10,10,10,28,16,38,0.00,5,,180
2014-1-14,46,42,38,40,38,32,100,79,58,29.80,29.71,29.68,10,6,0,23,9,37,0.26,8,Fog-Rain,211
2014-1-15,45,38,30,32,30,27,92,75,57,29.96,29.89,29.81,10,7,1,20,8,30,0.07,6,Rain-Snow,115
2014-1-16,32,29,26,29,26,22,92,84,75,29.99,29.95,29.91,10,5,1,8,3,11,0.05,8,Snow,11
2014-1-17,35,28,21,25,23,19,92,78,63,29.93,29.90,29.85,10,8,5,20,9,25,0.00,6,,176
2014-1-18,38,29,19,25,22,17,92,73,54,29.88,29.77,29.68,10,9,6,10,2,14,T,5,Snow,348
2014-1-19,32,29,26,26,23,17,92,78,63,29.71,29.58,29.42,10,5,0,23,11,31,0.17,8,Fog-Snow,190
2014-1-20,31,17,2,23,7,-9,81,71,60,30.04,29.65,29.44,10,4,0,17,10,22,0.10,7,Snow,3
2014-1-21,2,-4,-10,-6,-13,-18,79,64,49,30.18,30.12,30.01,10,7,1,14,7,19,T,5,Snow,22
2014-1-22,-2,-7,-13,-15,-17,-19,78,67,56,30.12,30.04,29.96,10,9,2,16,8,20,0.00,1,,20
2014-1-23,9,-3,-15,-6,-11,-20,81,66,50,30.25,30.13,30.04,10,10,7,13,4,18,0.00,3,,64
2014-1-24,16,3,-11,-2,-9,-15,83,62,41,30.32,30.16,29.82,10,10,9,26,9,39,T,3,Snow,137
2014-1-25,21,18,15,15,9,-1,77,62,47,29.79,29.47,29.30,10,6,1,26,17,35,T,8,Snow,185
2014-1-26,22,11,0,13,-5,-15,60,51,41,29.78,29.66,29.31,10,10,9,28,10,36,T,5,Snow,246
2014-1-27,32,21,9,20,4,-15,68,48,28,30.03,29.66,29.32,10,10,5,30,15,41,T,5,Snow,235
2014-1-28,17,11,5,-5,-8,-14,55,44,32,30.26,30.17,30.04,10,10,10,22,10,30,0.00,2,,219
2014-1-29,19,12,4,0,-6,-10,58,48,37,30.19,30.07,29.94,10,10,10,22,10,31,0.00,1,,200
2014-1-30,25,18,11,6,3,1,67,53,39,30.36,30.22,29.96,10,10,10,30,13,40,0.00,4,,185
2014-1-31,34,29,23,18,11,3,63,51,39,30.18,30.02,29.92,10,10,10,30,12,42,0.00,6,,195